Terminal Aerodrome Forecast
Issued by NWS

Home | Current Version | Previous Version | Text Only | Print | Product List | Glossary On
Versions: 1 2 3 4 5 6 7 8 9 10 11 12 13 14 15 16 17 18 19
467
FTUS43 KLSX 232320
TAFUIN
TAF
KUIN 232320Z 2400/2424 04005KT P6SM OVC060
     FM240800 01006KT P6SM BKN025
     FM241000 36005KT P6SM BKN010
     FM241300 01010KT P6SM BKN025
     FM241600 36010KT P6SM BKN040=

USA.gov is the U.S. government's official web portal to all federal, state and local government web resources and services.